createdAt,value
2019-05-09T00:00:14.257Z,100.00
2019-05-09T00:02:46.673Z,100.00
2019-05-09T00:05:22.561Z,100.00
2019-05-09T00:07:53.298Z,100.00
2019-05-09T00:10:38.366Z,100.00
2019-05-09T00:13:03.461Z,100.00
2019-05-09T00:15:36.912Z,100.00
2019-05-09T00:18:26.468Z,100.00
2019-05-09T00:21:23.898Z,100.00
2019-05-09T00:23:54.553Z,100.00
2019-05-09T00:26:26.224Z,100.00
2019-05-09T00:29:03.953Z,100.00
2019-05-09T00:31:45.848Z,100.00
2019-05-09T00:34:27.516Z,100.00
2019-05-09T00:36:59.207Z,100.00
2019-05-09T00:39:30.982Z,100.00
2019-05-09T00:42:09.099Z,100.00
2019-05-09T00:44:43.174Z,99.81
2019-05-09T00:47:28.356Z,99.99
2019-05-09T00:50:00.429Z,100.00
2019-05-09T00:52:33.927Z,99.62
2019-05-09T00:55:06.663Z,99.28
2019-05-09T00:57:38.186Z,99.10
2019-05-09T01:02:49.516Z,98.08
2019-05-09T01:05:21.230Z,97.95
2019-05-09T01:07:53.811Z,96.27
2019-05-09T01:10:25.818Z,96.46
2019-05-09T01:13:00.789Z,97.01
2019-05-09T01:15:33.556Z,96.79
2019-05-09T01:18:20.095Z,96.42
2019-05-09T01:20:53.125Z,96.31
2019-05-09T01:23:27.840Z,96.32
2019-05-09T01:26:00.382Z,96.61
2019-05-09T01:28:33.677Z,96.33
2019-05-09T01:31:15.597Z,95.87
2019-05-09T01:33:56.891Z,96.85
2019-05-09T01:36:47.826Z,97.02
2019-05-09T01:39:19.728Z,97.16
2019-05-09T01:41:53.426Z,97.54
2019-05-09T01:44:25.088Z,97.01
2019-05-09T01:46:57.277Z,97.46
2019-05-09T01:49:28.944Z,97.62
2019-05-09T01:52:10.233Z,97.38
2019-05-09T01:54:43.617Z,98.07
2019-05-09T01:57:23.270Z,98.34
2019-05-09T01:59:55.794Z,99.27
2019-05-09T02:02:28.721Z,99.32
2019-05-09T02:05:01.331Z,100.00
2019-05-09T02:07:33.202Z,100.00
2019-05-09T02:10:18.525Z,100.00
2019-05-09T02:12:53.635Z,100.00
2019-05-09T02:15:40.642Z,100.00
2019-05-09T02:18:19.204Z,100.00
2019-05-09T02:20:53.299Z,100.00
2019-05-09T02:23:25.327Z,100.00
2019-05-09T02:25:57.770Z,100.00
2019-05-09T02:28:28.442Z,100.00
2019-05-09T02:31:00.032Z,100.00
2019-05-09T02:33:34.036Z,100.00
2019-05-09T02:36:13.895Z,100.00
2019-05-09T02:38:48.593Z,100.00
2019-05-09T02:41:19.625Z,100.00
2019-05-09T02:43:52.267Z,100.00
2019-05-09T02:46:32.141Z,100.00
2019-05-09T02:49:08.539Z,100.00
2019-05-09T02:51:38.741Z,100.00
2019-05-09T02:54:18.821Z,100.00
2019-05-09T02:56:49.542Z,100.00
2019-05-09T03:03:29.048Z,100.00
2019-05-09T03:06:00.275Z,100.00
2019-05-09T03:08:34.305Z,100.00
2019-05-09T03:11:09.893Z,100.00
2019-05-09T03:13:41.329Z,100.00
2019-05-09T03:16:19.410Z,100.00
2019-05-09T03:18:52.179Z,100.00
2019-05-09T03:21:39.040Z,100.00
2019-05-09T03:24:18.440Z,100.00
2019-05-09T03:26:54.354Z,100.00
2019-05-09T03:29:41.361Z,100.00
2019-05-09T03:32:13.530Z,100.00
2019-05-09T03:34:45.199Z,100.00
2019-05-09T03:37:23.970Z,100.00
2019-05-09T03:39:57.972Z,100.00
2019-05-09T03:42:41.134Z,100.00
2019-05-09T03:45:09.337Z,100.00
2019-05-09T03:47:47.790Z,100.00
2019-05-09T03:50:28.031Z,100.00
2019-05-09T03:53:00.283Z,100.00
2019-05-09T03:55:38.336Z,100.00
2019-05-09T03:58:20.230Z,100.00
2019-05-09T04:00:51.343Z,100.00
2019-05-09T04:03:30.418Z,100.00
2019-05-09T04:06:04.509Z,100.00
2019-05-09T04:08:37.616Z,100.00
2019-05-09T04:11:08.798Z,100.00
2019-05-09T04:13:47.641Z,100.00
2019-05-09T04:16:19.553Z,100.00
2019-05-09T04:18:52.535Z,100.00
2019-05-09T04:21:23.431Z,99.57
2019-05-09T04:23:55.543Z,99.67
2019-05-09T04:26:48.445Z,99.58
2019-05-09T04:29:22.013Z,99.44
2019-05-09T04:31:53.549Z,99.83
2019-05-09T04:34:27.543Z,99.89
2019-05-09T04:36:58.543Z,99.26
2019-05-09T04:39:30.184Z,98.94
2019-05-09T04:42:05.433Z,98.57
2019-05-09T04:44:40.638Z,98.27
2019-05-09T04:47:12.623Z,96.96
2019-05-09T04:49:45.458Z,96.57
2019-05-09T04:52:18.741Z,96.08
2019-05-09T04:54:49.200Z,95.33
2019-05-09T04:57:27.939Z,95.00
2019-05-09T05:03:02.025Z,92.15
2019-05-09T05:05:34.444Z,91.51
2019-05-09T05:08:07.483Z,90.86
2019-05-09T05:10:38.563Z,90.03
2019-05-09T05:13:23.226Z,88.46
2019-05-09T05:15:43.601Z,89.07
2019-05-09T05:18:24.440Z,83.14
2019-05-09T05:20:57.639Z,80.56
2019-05-09T05:23:35.021Z,79.60
2019-05-09T05:26:09.413Z,82.22
2019-05-09T05:28:41.462Z,83.91
2019-05-09T05:31:12.101Z,83.68
2019-05-09T05:33:54.655Z,85.33
2019-05-09T05:36:27.970Z,85.51
2019-05-09T05:39:00.157Z,86.29
2019-05-09T05:41:32.115Z,86.41
2019-05-09T05:44:05.223Z,86.89
2019-05-09T05:46:51.366Z,87.08
2019-05-09T05:49:23.775Z,85.65
2019-05-09T05:51:57.512Z,85.97
2019-05-09T05:54:29.499Z,85.68
2019-05-09T05:57:00.424Z,86.06
2019-05-09T05:59:31.899Z,85.80
2019-05-09T06:02:04.120Z,85.62
2019-05-09T06:04:38.113Z,85.46
2019-05-09T06:07:10.133Z,86.23
2019-05-09T06:09:42.466Z,86.32
2019-05-09T06:12:18.354Z,87.30
2019-05-09T06:14:48.086Z,86.59
2019-05-09T06:21:57.393Z,86.28
2019-05-09T06:24:28.366Z,86.52
2019-05-09T06:26:59.444Z,85.43
2019-05-09T06:29:29.814Z,85.32
2019-05-09T06:32:00.214Z,85.37
2019-05-09T06:34:31.026Z,85.09
2019-05-09T06:37:04.228Z,85.69
2019-05-09T06:39:34.564Z,83.49
2019-05-09T06:42:04.916Z,84.24
2019-05-09T06:44:47.957Z,83.40
2019-05-09T06:47:28.170Z,83.11
2019-05-09T06:49:59.570Z,80.40
2019-05-09T06:52:29.970Z,79.55
2019-05-09T06:55:00.555Z,78.93
2019-05-09T06:57:30.935Z,75.19
2019-05-09T07:03:08.260Z,71.02
2019-05-09T07:06:04.864Z,69.08
2019-05-09T07:08:44.232Z,70.27
2019-05-09T07:11:19.006Z,72.08
2019-05-09T07:13:48.282Z,70.68
2019-05-09T07:16:19.578Z,71.74
2019-05-09T07:18:57.751Z,72.06
2019-05-09T07:21:48.526Z,72.43
2019-05-09T07:24:21.840Z,71.15
2019-05-09T07:26:58.237Z,74.00
2019-05-09T07:29:29.786Z,71.81
2019-05-09T07:32:07.645Z,71.98
2019-05-09T07:34:47.451Z,71.01
2019-05-09T07:37:18.600Z,71.95
2019-05-09T07:39:54.709Z,72.78
2019-05-09T07:42:28.473Z,72.88
2019-05-09T07:45:01.969Z,73.18
2019-05-09T07:47:33.644Z,72.17
2019-05-09T07:50:08.497Z,73.18
2019-05-09T07:52:41.255Z,72.88
2019-05-09T07:55:13.576Z,72.34
2019-05-09T07:57:50.084Z,71.53
2019-05-09T08:00:28.898Z,71.67
2019-05-09T08:03:02.743Z,72.82
2019-05-09T08:05:33.944Z,73.41
2019-05-09T08:08:08.171Z,73.97
2019-05-09T08:10:42.187Z,73.07
2019-05-09T08:13:18.230Z,73.09
2019-05-09T08:15:49.023Z,73.14
2019-05-09T08:18:20.261Z,72.78
2019-05-09T08:20:53.258Z,71.71
2019-05-09T08:23:28.175Z,73.29
2019-05-09T08:26:04.010Z,74.45
2019-05-09T08:28:33.330Z,75.15
2019-05-09T08:31:08.358Z,77.15
2019-05-09T08:33:40.920Z,78.63
2019-05-09T08:41:25.394Z,77.30
2019-05-09T08:43:57.600Z,75.41
2019-05-09T08:46:28.857Z,77.59
2019-05-09T08:48:59.322Z,75.55
2019-05-09T08:51:38.152Z,75.86
2019-05-09T08:54:09.164Z,76.91
2019-05-09T08:56:39.277Z,78.87
2019-05-09T09:02:48.181Z,79.65
2019-05-09T09:05:19.177Z,81.17
2019-05-09T09:07:49.747Z,81.35
2019-05-09T09:10:20.330Z,82.65
2019-05-09T09:12:50.842Z,81.28
2019-05-09T09:15:21.367Z,80.22
2019-05-09T09:17:52.382Z,79.90
2019-05-09T09:20:23.317Z,80.03
2019-05-09T09:22:53.695Z,77.83
2019-05-09T09:25:24.514Z,77.64
2019-05-09T09:27:57.491Z,76.62
2019-05-09T09:30:32.797Z,76.04
2019-05-09T09:33:09.099Z,75.72
2019-05-09T09:35:38.957Z,75.46
2019-05-09T09:38:09.945Z,76.72
2019-05-09T09:40:40.868Z,76.31
2019-05-09T09:43:13.813Z,74.21
2019-05-09T09:46:06.283Z,74.13
2019-05-09T09:48:24.162Z,71.17
2019-05-09T09:50:58.081Z,70.38
2019-05-09T09:53:32.480Z,72.50
2019-05-09T09:56:03.484Z,72.04
2019-05-09T09:58:38.881Z,71.67
2019-05-09T10:01:21.078Z,69.32
2019-05-09T10:04:23.563Z,69.87
2019-05-09T10:06:52.849Z,70.14
2019-05-09T10:09:22.689Z,67.60
2019-05-09T10:11:59.895Z,67.69
2019-05-09T10:14:38.651Z,68.42
2019-05-09T10:17:31.045Z,67.13
2019-05-09T10:20:21.012Z,66.13
2019-05-09T10:22:59.889Z,65.56
2019-05-09T10:25:34.571Z,64.06
2019-05-09T10:28:05.332Z,65.29
2019-05-09T10:30:38.221Z,64.52
2019-05-09T10:33:09.433Z,63.75
2019-05-09T10:35:40.619Z,63.42
2019-05-09T10:38:14.245Z,64.17
2019-05-09T10:40:48.290Z,63.64
2019-05-09T10:43:42.729Z,60.98
2019-05-09T10:46:48.260Z,61.99
2019-05-09T10:49:03.463Z,60.74
2019-05-09T10:51:39.107Z,61.25
2019-05-09T10:54:09.945Z,60.98
2019-05-09T10:56:41.204Z,61.31
2019-05-09T11:02:48.370Z,61.85
2019-05-09T11:05:21.546Z,60.46
2019-05-09T11:07:54.241Z,59.45
2019-05-09T11:10:29.508Z,60.09
2019-05-09T11:13:00.149Z,61.04
2019-05-09T11:15:39.126Z,61.69
2019-05-09T11:18:09.833Z,61.92
2019-05-09T11:20:43.110Z,62.10
2019-05-09T11:23:14.148Z,62.15
2019-05-09T11:25:47.292Z,62.83
2019-05-09T11:28:18.185Z,64.84
2019-05-09T11:30:52.301Z,65.30
2019-05-09T11:33:27.835Z,66.28
2019-05-09T11:35:58.488Z,68.36
2019-05-09T11:38:36.591Z,69.60
2019-05-09T11:41:08.171Z,70.67
2019-05-09T11:43:42.503Z,74.05
2019-05-09T11:46:12.952Z,76.25
2019-05-09T11:48:43.833Z,77.10
2019-05-09T11:51:20.466Z,79.47
2019-05-09T11:53:50.021Z,79.86
2019-05-09T11:56:20.700Z,81.15
2019-05-09T11:58:57.717Z,82.19
2019-05-09T12:01:40.418Z,82.07
2019-05-09T12:04:14.697Z,84.49
2019-05-09T12:06:49.392Z,85.63
2019-05-09T12:09:24.197Z,85.25
2019-05-09T12:11:54.848Z,85.76
2019-05-09T12:14:27.503Z,87.18
2019-05-09T12:16:57.833Z,86.40
2019-05-09T12:19:29.629Z,86.17
2019-05-09T12:22:00.702Z,86.75
2019-05-09T12:24:33.340Z,84.87
2019-05-09T12:27:14.876Z,85.58
2019-05-09T12:29:48.360Z,85.15
2019-05-09T12:32:19.673Z,85.93
2019-05-09T12:34:51.409Z,84.96
2019-05-09T12:37:22.811Z,85.50
2019-05-09T12:39:55.310Z,85.55
2019-05-09T12:42:28.908Z,85.11
2019-05-09T12:45:00.614Z,85.81
2019-05-09T12:47:32.657Z,83.96
2019-05-09T12:50:04.994Z,83.46
2019-05-09T12:52:48.614Z,83.07
2019-05-09T12:55:20.070Z,80.02
2019-05-09T12:57:53.647Z,79.09
2019-05-09T13:02:49.750Z,79.26
2019-05-09T13:05:20.501Z,78.19
2019-05-09T13:07:50.825Z,78.98
2019-05-09T13:10:21.500Z,78.55
2019-05-09T13:12:52.440Z,79.70
2019-05-09T13:15:31.308Z,80.09
2019-05-09T13:18:00.007Z,80.37
2019-05-09T13:20:30.334Z,80.35
2019-05-09T13:23:00.716Z,80.86
2019-05-09T13:25:34.123Z,78.86
2019-05-09T13:28:04.716Z,79.44
2019-05-09T13:30:38.145Z,79.21
2019-05-09T13:33:10.948Z,81.18
2019-05-09T13:35:48.530Z,80.93
2019-05-09T13:38:18.177Z,79.66
2019-05-09T13:40:53.698Z,82.99
2019-05-09T13:43:20.974Z,82.70
2019-05-09T13:45:52.666Z,84.52
2019-05-09T13:48:37.020Z,84.92
2019-05-09T13:50:57.773Z,87.66
2019-05-09T13:53:28.479Z,87.23
2019-05-09T13:55:58.880Z,87.12
2019-05-09T13:58:29.226Z,87.25
2019-05-09T14:01:02.515Z,86.86
2019-05-09T14:03:32.075Z,85.47
2019-05-09T14:06:02.597Z,84.62
2019-05-09T14:08:33.016Z,85.10
2019-05-09T14:11:03.525Z,82.11
2019-05-09T14:13:34.080Z,79.61
2019-05-09T14:16:16.927Z,78.84
2019-05-09T14:18:38.548Z,78.18
2019-05-09T14:21:08.975Z,75.89
2019-05-09T14:23:51.571Z,75.68
2019-05-09T14:26:14.616Z,77.10
2019-05-09T14:28:45.894Z,75.98
2019-05-09T14:31:18.661Z,77.81
2019-05-09T14:33:51.200Z,78.52
2019-05-09T14:36:21.433Z,76.85
2019-05-09T14:38:53.708Z,76.46
2019-05-09T14:41:24.373Z,75.84
2019-05-09T14:43:54.950Z,77.31
2019-05-09T14:46:25.368Z,77.14
2019-05-09T14:48:58.533Z,77.34
2019-05-09T14:51:29.188Z,75.69
2019-05-09T14:53:59.700Z,77.64
2019-05-09T14:56:30.385Z,78.97
2019-05-09T14:59:00.944Z,78.41
2019-05-09T15:02:48.896Z,78.99
2019-05-09T15:05:19.657Z,79.79
2019-05-09T15:07:54.159Z,82.18
2019-05-09T15:10:24.840Z,82.92
2019-05-09T15:12:55.555Z,83.81
2019-05-09T15:15:29.150Z,85.19
2019-05-09T15:17:58.687Z,86.40
2019-05-09T15:20:29.085Z,87.60
2019-05-09T15:22:59.534Z,87.33
2019-05-09T15:25:30.364Z,86.68
2019-05-09T15:28:00.822Z,85.18
2019-05-09T15:30:31.523Z,83.54
2019-05-09T15:33:02.214Z,84.54
2019-05-09T15:35:32.873Z,84.51
2019-05-09T15:38:03.778Z,84.31
2019-05-09T15:40:34.642Z,85.73
2019-05-09T15:43:08.117Z,86.58
2019-05-09T15:45:45.129Z,85.24
2019-05-09T15:48:15.455Z,83.66
2019-05-09T15:50:49.251Z,81.60
2019-05-09T15:53:19.813Z,79.14
2019-05-09T15:55:51.497Z,78.25
2019-05-09T15:58:22.022Z,79.13
2019-05-09T16:00:58.665Z,78.84
2019-05-09T16:03:28.395Z,79.41
2019-05-09T16:05:59.161Z,80.48
2019-05-09T16:08:29.671Z,80.78
2019-05-09T16:11:00.334Z,81.94
2019-05-09T16:13:30.680Z,83.61
2019-05-09T16:16:01.035Z,82.68
2019-05-09T16:18:31.481Z,82.17
2019-05-09T16:21:02.170Z,82.94
2019-05-09T16:23:35.097Z,84.04
2019-05-09T16:26:07.895Z,84.87
2019-05-09T16:28:38.007Z,85.20
2019-05-09T16:31:08.537Z,84.55
2019-05-09T16:33:39.613Z,84.02
2019-05-09T16:36:09.965Z,82.12
2019-05-09T16:38:45.766Z,79.01
2019-05-09T16:41:12.767Z,76.18
2019-05-09T16:43:43.073Z,76.89
2019-05-09T16:46:13.720Z,76.84
2019-05-09T16:48:44.289Z,77.43
2019-05-09T16:51:14.627Z,79.16
2019-05-09T16:53:49.529Z,79.17
2019-05-09T16:56:18.209Z,80.24
2019-05-09T16:58:48.974Z,79.32
2019-05-09T17:02:48.080Z,80.48
2019-05-09T17:05:18.691Z,81.50
2019-05-09T17:07:58.404Z,81.14
2019-05-09T17:10:31.943Z,79.82
2019-05-09T17:13:02.802Z,80.93
2019-05-09T17:15:33.264Z,81.06
2019-05-09T17:18:03.927Z,80.89
2019-05-09T17:20:41.111Z,79.09
2019-05-09T17:23:15.310Z,78.93
2019-05-09T17:25:48.055Z,76.67
2019-05-09T17:28:18.254Z,70.10
2019-05-09T17:30:49.468Z,73.16
2019-05-09T17:33:20.210Z,75.25
2019-05-09T17:35:51.007Z,76.42
2019-05-09T17:38:21.541Z,77.52
2019-05-09T17:40:52.398Z,78.29
2019-05-09T17:43:22.966Z,79.05
2019-05-09T17:45:53.638Z,78.77
2019-05-09T17:48:24.275Z,79.32
2019-05-09T17:50:57.698Z,79.56
2019-05-09T17:53:29.248Z,80.37
2019-05-09T17:56:03.723Z,79.59
2019-05-09T17:58:34.166Z,80.09
2019-05-09T18:01:07.826Z,79.90
2019-05-09T18:03:38.640Z,79.47
2019-05-09T18:06:09.348Z,79.34
2019-05-09T18:08:40.111Z,80.88
2019-05-09T18:11:12.955Z,82.17
2019-05-09T18:13:47.365Z,84.42
2019-05-09T18:16:18.760Z,84.21
2019-05-09T18:18:48.843Z,85.49
2019-05-09T18:21:19.580Z,86.60
2019-05-09T18:23:50.309Z,88.59
2019-05-09T18:26:21.584Z,90.53
2019-05-09T18:28:52.827Z,90.75
2019-05-09T18:31:24.926Z,91.55
2019-05-09T18:34:00.641Z,92.79
2019-05-09T18:36:40.833Z,93.64
2019-05-09T18:39:11.239Z,94.77
2019-05-09T18:41:43.259Z,95.51
2019-05-09T18:44:14.003Z,96.10
2019-05-09T18:46:44.745Z,97.30
2019-05-09T18:49:15.209Z,96.90
2019-05-09T18:51:45.835Z,97.21
2019-05-09T18:54:16.282Z,96.01
2019-05-09T18:56:47.258Z,95.40
2019-05-09T19:02:49.001Z,96.20
2019-05-09T19:05:20.160Z,96.12
2019-05-09T19:07:50.650Z,94.15
2019-05-09T19:10:21.470Z,93.06
2019-05-09T19:12:51.983Z,93.11
2019-05-09T19:15:32.890Z,93.59
2019-05-09T19:18:23.721Z,92.14
2019-05-09T19:21:00.879Z,92.22
2019-05-09T19:23:31.530Z,92.33
2019-05-09T19:26:06.745Z,93.16
2019-05-09T19:28:37.088Z,92.43
2019-05-09T19:31:08.113Z,91.73
2019-05-09T19:33:38.910Z,91.46
2019-05-09T19:36:11.786Z,89.52
2019-05-09T19:38:42.366Z,89.32
2019-05-09T19:41:16.008Z,89.35
2019-05-09T19:43:49.821Z,89.16
2019-05-09T19:46:20.584Z,88.89
2019-05-09T19:48:51.592Z,88.47
2019-05-09T19:51:22.579Z,88.89
2019-05-09T19:53:53.261Z,89.05
2019-05-09T19:56:24.028Z,89.63
2019-05-09T19:58:54.671Z,89.40
2019-05-09T20:01:25.385Z,89.63
2019-05-09T20:03:56.240Z,90.51
2019-05-09T20:06:28.159Z,91.36
2019-05-09T20:08:58.747Z,91.76
2019-05-09T20:12:08.519Z,91.00
2019-05-09T20:14:47.854Z,91.81
2019-05-09T20:17:19.039Z,91.87
2019-05-09T20:19:49.493Z,92.13
2019-05-09T20:22:20.187Z,90.75
2019-05-09T20:24:51.065Z,89.07
2019-05-09T20:27:22.821Z,89.23
2019-05-09T20:29:53.273Z,88.98
2019-05-09T20:32:23.721Z,89.34
2019-05-09T20:34:54.222Z,89.02
2019-05-09T20:37:24.790Z,87.82
2019-05-09T20:39:55.144Z,86.86
2019-05-09T20:42:26.064Z,87.07
2019-05-09T20:44:56.854Z,88.66
2019-05-09T20:47:27.759Z,88.71
2019-05-09T20:49:58.575Z,89.16
2019-05-09T20:52:29.375Z,90.18
2019-05-09T20:55:00.131Z,89.57
2019-05-09T20:57:30.791Z,90.70
2019-05-09T21:02:48.040Z,90.70
2019-05-09T21:05:18.652Z,90.41
2019-05-09T21:07:49.146Z,88.75
2019-05-09T21:10:20.786Z,88.97
2019-05-09T21:12:51.653Z,88.29
2019-05-09T21:15:25.220Z,88.75
2019-05-09T21:17:55.907Z,88.94
2019-05-09T21:20:29.102Z,88.71
2019-05-09T21:22:59.737Z,89.11
2019-05-09T21:25:33.137Z,89.45
2019-05-09T21:28:02.998Z,89.63
2019-05-09T21:30:33.679Z,90.13
2019-05-09T21:33:07.212Z,89.85
2019-05-09T21:35:38.016Z,89.59
2019-05-09T21:38:11.313Z,89.28
2019-05-09T21:40:41.662Z,89.50
2019-05-09T21:43:12.354Z,90.00
2019-05-09T21:45:42.942Z,90.17
2019-05-09T21:48:14.623Z,90.44
2019-05-09T21:50:45.246Z,90.98
2019-05-09T21:53:16.142Z,92.61
2019-05-09T21:55:47.142Z,93.72
2019-05-09T21:58:18.002Z,95.34
2019-05-09T22:00:53.952Z,96.29
2019-05-09T22:03:24.382Z,97.38
2019-05-09T22:05:54.932Z,97.70
2019-05-09T22:08:25.793Z,96.19
2019-05-09T22:10:56.405Z,97.06
2019-05-09T22:13:26.809Z,97.41
2019-05-09T22:15:57.229Z,96.29
2019-05-09T22:18:27.767Z,96.31
2019-05-09T22:20:58.320Z,96.43
2019-05-09T22:23:30.917Z,97.86
2019-05-09T22:26:06.088Z,97.46
2019-05-09T22:28:37.307Z,98.07
2019-05-09T22:31:08.553Z,98.10
2019-05-09T22:33:39.086Z,98.78
2019-05-09T22:36:09.744Z,99.04
2019-05-09T22:38:43.566Z,99.38
2019-05-09T22:41:14.146Z,99.11
2019-05-09T22:43:44.838Z,99.37
2019-05-09T22:46:15.895Z,99.70
2019-05-09T22:48:46.473Z,98.55
2019-05-09T22:51:19.242Z,98.60
2019-05-09T22:53:49.965Z,99.22
2019-05-09T22:56:21.229Z,98.52
2019-05-09T22:58:51.899Z,98.06
2019-05-09T23:13:52.532Z,93.73
2019-05-09T23:16:25.281Z,92.85
2019-05-09T23:18:56.378Z,92.98
2019-05-09T23:21:28.377Z,92.55
2019-05-09T23:24:01.783Z,92.91
2019-05-09T23:26:35.306Z,93.62
2019-05-09T23:29:05.955Z,94.38
2019-05-09T23:32:03.839Z,95.07
2019-05-09T23:34:34.319Z,95.65
2019-05-09T23:37:04.977Z,96.22
2019-05-09T23:39:40.066Z,95.89
2019-05-09T23:42:10.761Z,97.15
2019-05-09T23:44:41.311Z,97.67
2019-05-09T23:47:11.804Z,97.90
2019-05-09T23:49:42.176Z,97.70
2019-05-09T23:52:14.382Z,97.24
2019-05-09T23:55:02.335Z,97.75
2019-05-09T23:57:49.959Z,97.44
